KLM1314 EBOS-EHAM
Flight info
| Callsign | KLM1314 |
|---|---|
| Flight time | N/A |
| Altitude | 11000 |
| Route | COA7M COA DENUT DENU3A |
| Aircraft | A333/H-SDE2E3FGHIJ4J5M1RWXY/LB1D1 |
Departure
| Time | 2026-05-04 13:52 |
|---|---|
| Airport | Ostend-Bruges International Airport (EBOS) |
Arrival
| Time | N/A |
|---|---|
| Airport | Amsterdam Airport Schiphol (EHAM) |
| Time | Latitude | Longitude | Altitude | Speed | Heading |
|---|---|---|---|---|---|
| 2026-05-04 13:39 | 51.20184 | 2.86946 | 5 ft | 0 kts | 167° |
| 2026-05-04 13:46 | 51.20193 | 2.86943 | 17 ft | 3 kts | 167° |
| 2026-05-04 13:46 | 51.20211 | 2.86936 | 21 ft | 3 kts | 167° |
| 2026-05-04 13:46 | 51.20228 | 2.86930 | 21 ft | 2 kts | 167° |
| 2026-05-04 13:47 | 51.20245 | 2.86924 | 20 ft | 2 kts | 167° |
| 2026-05-04 13:47 | 51.20249 | 2.86924 | 21 ft | 3 kts | 153° |
| 2026-05-04 13:47 | 51.20253 | 2.86922 | 21 ft | 0 kts | 143° |
| 2026-05-04 13:48 | 51.20253 | 2.86985 | 17 ft | 9 kts | 78° |
| 2026-05-04 13:48 | 51.20256 | 2.87093 | 17 ft | 10 kts | 106° |
| 2026-05-04 13:48 | 51.20208 | 2.87152 | 17 ft | 9 kts | 169° |
| 2026-05-04 13:49 | 51.20138 | 2.87165 | 17 ft | 11 kts | 181° |
| 2026-05-04 13:49 | 51.20097 | 2.87092 | 17 ft | 10 kts | 256° |
| 2026-05-04 13:49 | 51.20067 | 2.86892 | 19 ft | 25 kts | 257° |
| 2026-05-04 13:49 | 51.20026 | 2.86623 | 17 ft | 25 kts | 256° |
| 2026-05-04 13:50 | 51.19999 | 2.86441 | 17 ft | 26 kts | 257° |
| 2026-05-04 13:50 | 51.19944 | 2.86069 | 17 ft | 26 kts | 257° |
| 2026-05-04 13:50 | 51.19901 | 2.85784 | 18 ft | 26 kts | 256° |
| 2026-05-04 13:50 | 51.19876 | 2.85617 | 18 ft | 16 kts | 257° |
| 2026-05-04 13:51 | 51.19853 | 2.85463 | 18 ft | 15 kts | 256° |
| 2026-05-04 13:51 | 51.19808 | 2.85309 | 18 ft | 16 kts | 223° |
| 2026-05-04 13:51 | 51.19712 | 2.85271 | 17 ft | 15 kts | 163° |
| 2026-05-04 13:51 | 51.19674 | 2.85405 | 16 ft | 23 kts | 81° |
| 2026-05-04 13:52 | 51.19959 | 2.87290 | 19 ft | 146 kts | 76° |
| 2026-05-04 13:52 | 51.20235 | 2.89095 | 245 ft | 178 kts | 75° |
| 2026-05-04 13:52 | 51.20551 | 2.91059 | 1009 ft | 184 kts | 72° |
| 2026-05-04 13:53 | 51.20847 | 2.93070 | 1772 ft | 195 kts | 77° |
| 2026-05-04 13:53 | 51.21157 | 2.95301 | 2202 ft | 218 kts | 76° |
| 2026-05-04 13:53 | 51.21521 | 2.97784 | 2477 ft | 242 kts | 76° |
| 2026-05-04 13:54 | 51.22350 | 3.03320 | 3425 ft | 265 kts | 76° |
| 2026-05-04 13:54 | 51.22779 | 3.06140 | 4394 ft | 261 kts | 76° |
| 2026-05-04 13:54 | 51.23850 | 3.11691 | 5715 ft | 275 kts | 75° |
| 2026-05-04 13:55 | 51.24315 | 3.14671 | 6236 ft | 287 kts | 76° |
| 2026-05-04 13:55 | 51.25262 | 3.20971 | 8108 ft | 271 kts | 76° |
| 2026-05-04 13:55 | 51.25704 | 3.23908 | 8684 ft | 280 kts | 76° |
| 2026-05-04 13:56 | 51.26197 | 3.26979 | 8895 ft | 285 kts | 70° |
| 2026-05-04 13:56 | 51.27283 | 3.29584 | 9091 ft | 285 kts | 35° |
| 2026-05-04 13:56 | 51.31051 | 3.30533 | 9447 ft | 286 kts | 355° |
| 2026-05-04 13:57 | 51.33056 | 3.30520 | 9649 ft | 289 kts | 5° |
| 2026-05-04 13:57 | 51.35044 | 3.31041 | 9935 ft | 290 kts | 12° |
| 2026-05-04 13:58 | 51.40504 | 3.35276 | 10529 ft | 298 kts | 35° |
| 2026-05-04 13:58 | 51.43839 | 3.39310 | 10927 ft | 303 kts | 37° |
| 2026-05-04 13:58 | 51.45524 | 3.41347 | 11158 ft | 304 kts | 36° |
| 2026-05-04 13:59 | 51.47220 | 3.43371 | 11412 ft | 304 kts | 36° |
| 2026-05-04 13:59 | 51.48918 | 3.45395 | 11681 ft | 304 kts | 36° |
| 2026-05-04 13:59 | 51.52288 | 3.49438 | 12296 ft | 300 kts | 36° |
| 2026-05-04 14:00 | 51.53956 | 3.51440 | 12632 ft | 298 kts | 36° |
| 2026-05-04 14:00 | 51.57213 | 3.55347 | 13332 ft | 289 kts | 36° |
| 2026-05-04 14:00 | 51.58806 | 3.57260 | 13712 ft | 283 kts | 36° |
| 2026-05-04 14:01 | 51.60361 | 3.59134 | 14069 ft | 275 kts | 36° |
| 2026-05-04 14:01 | 51.61862 | 3.60948 | 14406 ft | 265 kts | 36° |
| 2026-05-04 14:01 | 51.64722 | 3.64395 | 14779 ft | 256 kts | 36° |
| 2026-05-04 14:02 | 51.66180 | 3.66132 | 14633 ft | 266 kts | 36° |
| 2026-05-04 14:02 | 51.67687 | 3.67931 | 14581 ft | 272 kts | 36° |
| 2026-05-04 14:02 | 51.69222 | 3.69776 | 14645 ft | 275 kts | 36° |
| 2026-05-04 14:02 | 51.70751 | 3.71623 | 14786 ft | 274 kts | 36° |
| 2026-05-04 14:03 | 51.72272 | 3.73462 | 14977 ft | 271 kts | 36° |
| 2026-05-04 14:03 | 51.73749 | 3.75253 | 15199 ft | 265 kts | 36° |
| 2026-05-04 14:03 | 51.75206 | 3.77012 | 15415 ft | 259 kts | 36° |
| 2026-05-04 14:03 | 51.76653 | 3.78751 | 15430 ft | 261 kts | 36° |
| 2026-05-04 14:04 | 51.79647 | 3.82347 | 15336 ft | 272 kts | 36° |
| 2026-05-04 14:04 | 51.81166 | 3.84182 | 15439 ft | 272 kts | 36° |
| 2026-05-04 14:04 | 51.82674 | 3.86011 | 15600 ft | 269 kts | 36° |
| 2026-05-04 14:05 | 51.85617 | 3.89566 | 15899 ft | 262 kts | 36° |
| 2026-05-04 14:05 | 51.87093 | 3.91347 | 15852 ft | 267 kts | 36° |
| 2026-05-04 14:05 | 51.88599 | 3.93170 | 15815 ft | 271 kts | 36° |
| 2026-05-04 14:06 | 51.90073 | 3.94959 | 15807 ft | 255 kts | 36° |
| 2026-05-04 14:06 | 51.91489 | 3.96693 | 15121 ft | 263 kts | 39° |
| 2026-05-04 14:06 | 51.92688 | 3.98727 | 14119 ft | 287 kts | 53° |